createdAt,value
2022-12-11T08:11:26.546Z,87.18
2022-12-11T08:13:56.278Z,87.15
2022-12-11T08:16:40.972Z,87.69
2022-12-11T08:19:11.097Z,87.74
2022-12-11T08:21:40.605Z,88.00
2022-12-11T08:24:23.359Z,88.09
2022-12-11T08:26:52.059Z,88.51
2022-12-11T08:29:20.697Z,88.71
2022-12-11T08:31:50.471Z,88.47
2022-12-11T08:34:19.290Z,88.33
2022-12-11T08:36:48.347Z,88.69
2022-12-11T08:39:17.201Z,88.63
2022-12-11T08:41:46.014Z,88.53
2022-12-11T08:44:16.960Z,88.64
2022-12-11T08:46:46.799Z,88.67
2022-12-11T08:49:15.870Z,88.85
2022-12-11T08:51:44.571Z,88.53
2022-12-11T08:54:13.220Z,88.72
2022-12-11T08:56:41.746Z,88.83
2022-12-11T08:59:25.905Z,88.81
2022-12-11T09:02:13.064Z,88.80
2022-12-11T09:04:55.338Z,88.80
2022-12-11T09:07:39.749Z,88.76
2022-12-11T09:10:10.579Z,88.93
2022-12-11T09:12:39.562Z,88.67
2022-12-11T09:15:09.372Z,88.51
2022-12-11T09:17:39.221Z,88.92
2022-12-11T09:20:08.616Z,88.85
2022-12-11T09:22:51.208Z,88.75
2022-12-11T09:25:33.683Z,88.90
2022-12-11T09:28:17.123Z,88.94
2022-12-11T09:30:46.259Z,89.18
2022-12-11T09:33:15.315Z,88.87
2022-12-11T09:35:44.660Z,89.22
2022-12-11T09:38:13.627Z,89.00
2022-12-11T09:40:43.856Z,88.86
2022-12-11T09:43:41.937Z,89.20
2022-12-11T09:46:26.284Z,89.08
2022-12-11T09:48:56.312Z,89.01
2022-12-11T09:51:43.137Z,89.23
2022-12-11T09:54:14.687Z,89.25
2022-12-11T09:56:53.370Z,89.44
2022-12-11T09:59:38.558Z,89.03
2022-12-11T10:02:34.269Z,89.58
2022-12-11T10:05:19.150Z,89.19
2022-12-11T10:08:20.602Z,88.85
2022-12-11T10:10:49.505Z,88.72
2022-12-11T10:13:33.750Z,89.08
2022-12-11T10:16:44.831Z,89.24
2022-12-11T10:19:28.066Z,88.67
2022-12-11T10:21:58.342Z,88.70
2022-12-11T10:25:14.507Z,89.01
2022-12-11T10:27:45.005Z,89.12
2022-12-11T10:30:13.670Z,89.20
2022-12-11T10:33:13.185Z,88.82
2022-12-11T10:35:47.431Z,89.15
2022-12-11T10:38:34.736Z,89.06
2022-12-11T10:41:10.733Z,88.91
2022-12-11T10:43:46.208Z,89.16
2022-12-11T10:46:22.366Z,88.73
2022-12-11T10:48:56.973Z,89.05
2022-12-11T10:51:27.164Z,88.98
2022-12-11T10:54:04.020Z,88.70
2022-12-11T10:56:38.194Z,88.97
2022-12-11T10:59:07.623Z,89.43
2022-12-11T11:01:36.269Z,89.18
2022-12-11T11:04:14.424Z,89.16
2022-12-11T11:06:43.248Z,89.12
2022-12-11T11:09:34.356Z,89.18
2022-12-11T11:12:07.833Z,89.08
2022-12-11T11:15:17.747Z,88.92
2022-12-11T11:17:56.247Z,89.11
2022-12-11T11:20:29.715Z,89.17
2022-12-11T11:23:16.271Z,89.63
2022-12-11T11:26:01.015Z,89.47
2022-12-11T11:28:50.421Z,89.22
2022-12-11T11:31:36.464Z,89.40
2022-12-11T11:34:19.163Z,89.40
2022-12-11T11:36:58.462Z,89.43
2022-12-11T11:39:38.349Z,89.33
2022-12-11T11:42:11.086Z,89.67
2022-12-11T11:44:47.353Z,89.72
2022-12-11T11:47:30.945Z,89.44
2022-12-11T11:50:36.421Z,89.69
2022-12-11T11:53:29.134Z,89.64
2022-12-11T11:56:26.774Z,89.72
2022-12-11T11:59:21.118Z,89.99
2022-12-11T12:01:52.110Z,90.13
2022-12-11T12:04:20.773Z,89.93
2022-12-11T12:07:08.750Z,90.32
2022-12-11T12:09:54.426Z,90.28
2022-12-11T12:12:42.887Z,90.29
2022-12-11T12:15:21.185Z,90.04
2022-12-11T12:18:13.393Z,90.23
2022-12-11T12:21:17.976Z,90.35
2022-12-11T12:24:34.777Z,90.25
2022-12-11T12:27:52.210Z,90.00
2022-12-11T12:30:51.119Z,90.56
2022-12-11T12:33:38.651Z,90.61
2022-12-11T12:36:21.303Z,90.47
2022-12-11T12:39:20.045Z,90.62
2022-12-11T12:42:07.256Z,90.47
2022-12-11T12:44:55.903Z,90.29
2022-12-11T12:47:39.244Z,90.23
2022-12-11T12:50:18.484Z,90.55
2022-12-11T12:52:49.370Z,90.64
2022-12-11T12:55:29.976Z,90.36
2022-12-11T12:58:01.784Z,90.47
2022-12-11T13:00:44.834Z,90.16
2022-12-11T13:03:20.775Z,90.38
2022-12-11T13:06:08.250Z,90.59
2022-12-11T13:08:39.465Z,90.88
2022-12-11T13:11:33.376Z,90.44
2022-12-11T13:14:07.233Z,90.10
2022-12-11T13:16:51.854Z,90.57
2022-12-11T13:19:24.046Z,90.70
2022-12-11T13:21:56.281Z,90.45
2022-12-11T13:24:28.056Z,90.50
2022-12-11T13:26:57.040Z,90.74
2022-12-11T13:29:38.042Z,90.47
2022-12-11T13:32:10.309Z,90.76
2022-12-11T13:34:45.449Z,90.84
2022-12-11T13:37:39.956Z,90.76
2022-12-11T13:40:22.755Z,90.73
2022-12-11T13:42:55.043Z,91.00
2022-12-11T13:45:30.366Z,90.45
2022-12-11T13:48:00.505Z,90.79
2022-12-11T13:50:33.326Z,90.80
2022-12-11T13:53:04.183Z,91.20
2022-12-11T13:55:35.446Z,90.59
2022-12-11T13:58:20.729Z,91.10
2022-12-11T14:01:18.010Z,90.56
2022-12-11T14:03:59.736Z,90.59
2022-12-11T14:06:30.621Z,90.50
2022-12-11T14:09:02.136Z,90.71
2022-12-11T14:11:46.507Z,91.06
2022-12-11T14:14:51.735Z,90.72
2022-12-11T14:17:35.608Z,90.81
2022-12-11T14:20:22.535Z,91.23
2022-12-11T14:22:52.051Z,91.27
2022-12-11T14:25:25.973Z,90.98
2022-12-11T14:28:17.975Z,91.07
2022-12-11T14:30:52.693Z,90.90
2022-12-11T14:33:26.079Z,90.85
2022-12-11T14:35:56.526Z,91.16
2022-12-11T14:39:07.067Z,90.69
2022-12-11T14:41:42.392Z,91.08
2022-12-11T14:44:17.141Z,91.28
2022-12-11T14:47:04.443Z,91.52
2022-12-11T14:49:43.122Z,91.35
2022-12-11T14:52:33.487Z,91.49
2022-12-11T14:55:09.398Z,90.93
2022-12-11T14:57:43.739Z,91.38
2022-12-11T15:00:38.866Z,91.59
2022-12-11T15:03:22.599Z,91.44
2022-12-11T15:05:57.540Z,90.83
2022-12-11T15:08:28.879Z,91.15
2022-12-11T15:11:15.167Z,90.97
2022-12-11T15:14:01.281Z,91.09
2022-12-11T15:16:34.398Z,91.17
2022-12-11T15:19:35.521Z,91.21
2022-12-11T15:22:08.845Z,91.10
2022-12-11T15:24:41.475Z,91.20
2022-12-11T15:27:28.347Z,90.87
2022-12-11T15:29:57.725Z,91.00
2022-12-11T15:32:26.436Z,91.47
2022-12-11T15:34:58.109Z,91.50
2022-12-11T15:37:40.565Z,91.10
2022-12-11T15:40:23.913Z,91.03
2022-12-11T15:42:55.525Z,90.95
2022-12-11T15:45:37.921Z,91.05
2022-12-11T15:48:08.413Z,90.58
2022-12-11T15:53:28.532Z,91.33
2022-12-11T15:56:00.596Z,91.36
2022-12-11T15:58:29.470Z,91.35
2022-12-11T16:00:58.481Z,91.35
2022-12-11T16:03:27.919Z,91.12
2022-12-11T16:05:57.952Z,90.94
2022-12-11T16:08:26.994Z,91.25
2022-12-11T16:10:56.501Z,91.23
2022-12-11T16:13:39.072Z,91.23
2022-12-11T16:16:08.013Z,91.27
2022-12-11T16:18:37.170Z,91.04
2022-12-11T16:21:06.810Z,91.24
2022-12-11T16:23:35.871Z,91.07
2022-12-11T16:26:09.908Z,91.09
2022-12-11T16:28:38.576Z,90.80
2022-12-11T16:31:15.382Z,91.24
2022-12-11T16:33:44.362Z,91.03
2022-12-11T16:36:18.272Z,91.19
2022-12-11T16:38:53.798Z,90.84
2022-12-11T16:41:24.320Z,90.73
2022-12-11T16:44:06.951Z,90.87
2022-12-11T16:46:36.367Z,91.21
2022-12-11T16:49:06.037Z,90.85
2022-12-11T16:51:49.818Z,91.16
2022-12-11T16:54:19.077Z,91.03
2022-12-11T16:56:48.655Z,91.42
2022-12-11T16:59:36.638Z,90.60
2022-12-11T17:02:07.440Z,91.21
2022-12-11T17:04:38.208Z,90.96
2022-12-11T17:07:20.667Z,91.02
2022-12-11T17:09:49.907Z,91.02
2022-12-11T17:12:19.406Z,91.01
2022-12-11T17:14:48.501Z,91.19
2022-12-11T17:17:17.275Z,90.92
2022-12-11T17:19:46.396Z,91.00
2022-12-11T17:22:29.191Z,91.01
2022-12-11T17:25:12.121Z,91.09
2022-12-11T17:27:55.660Z,90.92
2022-12-11T17:30:24.672Z,91.45
2022-12-11T17:33:07.581Z,91.44
2022-12-11T17:35:50.254Z,91.49
2022-12-11T17:38:19.303Z,91.06
2022-12-11T17:41:06.911Z,91.11
2022-12-11T17:43:51.454Z,90.88
2022-12-11T17:46:21.557Z,91.59
2022-12-11T17:48:50.197Z,91.16
2022-12-11T17:51:32.911Z,91.45
2022-12-11T17:54:15.714Z,91.19
2022-12-11T17:56:44.709Z,91.31
2022-12-11T17:59:13.897Z,91.02
2022-12-11T18:01:43.885Z,90.95
2022-12-11T18:04:27.337Z,91.68
2022-12-11T18:06:57.293Z,91.44
2022-12-11T18:09:26.684Z,90.95
2022-12-11T18:11:55.747Z,91.42
2022-12-11T18:14:38.525Z,90.94
2022-12-11T18:17:08.008Z,91.13
2022-12-11T18:19:50.700Z,90.76
2022-12-11T18:22:19.862Z,90.58
2022-12-11T18:24:48.982Z,90.83
2022-12-11T18:27:31.245Z,91.36
2022-12-11T18:30:00.000Z,91.02
2022-12-11T18:32:29.715Z,91.01
2022-12-11T18:34:58.829Z,91.11
2022-12-11T18:37:28.269Z,90.79
2022-12-11T18:39:58.117Z,90.92
2022-12-11T18:42:40.373Z,90.89
2022-12-11T18:45:10.033Z,90.98
2022-12-11T18:47:53.033Z,91.09
2022-12-11T18:50:22.107Z,90.54
2022-12-11T18:52:55.091Z,91.09
2022-12-11T18:55:43.070Z,90.47
2022-12-11T18:58:13.684Z,90.61
2022-12-11T19:00:43.406Z,90.96
2022-12-11T19:03:25.795Z,90.45
2022-12-11T19:05:54.371Z,90.67
2022-12-11T19:08:23.969Z,90.64
2022-12-11T19:10:52.526Z,90.49
2022-12-11T19:13:21.362Z,90.78
2022-12-11T19:15:50.512Z,90.48
2022-12-11T19:18:19.145Z,90.80
2022-12-11T19:20:51.066Z,90.54
2022-12-11T19:23:23.513Z,90.53
2022-12-11T19:25:52.376Z,90.91
2022-12-11T19:28:34.999Z,90.71
2022-12-11T19:31:20.981Z,90.71
2022-12-11T19:33:50.347Z,90.51
2022-12-11T19:36:22.461Z,90.86
2022-12-11T19:39:09.826Z,90.61
2022-12-11T19:41:55.013Z,90.40
2022-12-11T19:44:23.336Z,90.57
2022-12-11T19:47:06.013Z,90.92
2022-12-11T19:49:34.398Z,90.61
2022-12-11T19:52:16.588Z,90.30
2022-12-11T19:54:45.402Z,90.65
2022-12-11T19:57:13.957Z,90.83
2022-12-11T19:59:42.491Z,90.52
2022-12-11T20:02:14.428Z,90.58
2022-12-11T20:04:56.800Z,90.69
2022-12-11T20:07:30.523Z,90.27
2022-12-11T20:10:00.805Z,90.51
2022-12-11T20:12:29.834Z,90.38
2022-12-11T20:14:58.915Z,90.34
2022-12-11T20:17:27.587Z,90.59
2022-12-11T20:19:56.459Z,90.48
2022-12-11T20:22:25.272Z,90.58
2022-12-11T20:25:07.825Z,90.34
2022-12-11T20:27:50.702Z,90.23
2022-12-11T20:30:19.908Z,90.41
2022-12-11T20:32:49.211Z,90.36
2022-12-11T20:35:18.775Z,90.42
2022-12-11T20:37:47.782Z,90.33
2022-12-11T20:40:17.423Z,90.58
2022-12-11T20:42:46.317Z,90.45
2022-12-11T20:45:28.626Z,90.60
2022-12-11T20:47:56.990Z,90.63
2022-12-11T20:50:39.721Z,90.29
2022-12-11T20:53:21.938Z,90.67
2022-12-11T20:55:53.468Z,90.49
2022-12-11T20:58:22.948Z,90.63
2022-12-11T21:00:51.850Z,90.60
2022-12-11T21:03:20.549Z,90.80
2022-12-11T21:05:49.117Z,90.97
2022-12-11T21:08:17.944Z,91.00
2022-12-11T21:10:46.967Z,91.32
2022-12-11T21:13:16.999Z,91.01
2022-12-11T21:15:46.319Z,91.30
2022-12-11T21:18:15.221Z,91.05
2022-12-11T21:20:43.635Z,91.50
2022-12-11T21:23:12.366Z,91.63
2022-12-11T21:25:41.878Z,91.40
2022-12-11T21:28:10.982Z,91.48
2022-12-11T21:30:41.711Z,91.77
2022-12-11T21:33:23.991Z,91.74
2022-12-11T21:35:57.840Z,91.99
2022-12-11T21:38:41.961Z,91.72
2022-12-11T21:41:17.855Z,92.17
2022-12-11T21:46:52.620Z,91.70
2022-12-11T21:49:22.464Z,92.09
2022-12-11T21:51:51.698Z,91.77
2022-12-11T21:54:34.068Z,92.25
2022-12-11T21:57:20.045Z,92.17
2022-12-11T21:59:52.897Z,92.13
2022-12-11T22:02:22.421Z,92.23
2022-12-11T22:05:05.924Z,92.10
2022-12-11T22:07:48.797Z,92.16
2022-12-11T22:10:17.844Z,92.00
2022-12-11T22:12:46.649Z,92.17
2022-12-11T22:15:28.990Z,92.40
2022-12-11T22:18:11.337Z,92.53
2022-12-11T22:20:40.080Z,92.27
2022-12-11T22:23:23.259Z,92.25
2022-12-11T22:26:07.664Z,92.22
2022-12-11T22:28:37.019Z,92.17
2022-12-11T22:31:22.964Z,92.15
2022-12-11T22:34:05.836Z,92.32
2022-12-11T22:36:34.827Z,92.17
2022-12-11T22:39:17.434Z,92.11
2022-12-11T22:41:46.317Z,92.22
2022-12-11T22:44:17.530Z,92.47
2022-12-11T22:46:49.925Z,92.38
2022-12-11T22:49:20.777Z,92.37
2022-12-11T22:51:50.473Z,92.40
2022-12-11T22:54:19.111Z,92.30
2022-12-11T22:56:47.703Z,92.34
2022-12-11T22:59:30.124Z,92.37
2022-12-11T23:01:58.970Z,92.43
2022-12-11T23:04:41.658Z,92.45
2022-12-11T23:07:11.362Z,92.40
2022-12-11T23:09:53.695Z,92.46
2022-12-11T23:12:24.225Z,92.52
2022-12-11T23:14:53.042Z,92.53
2022-12-11T23:17:22.101Z,92.63
2022-12-11T23:20:06.030Z,92.65
2022-12-11T23:22:35.044Z,92.66
2022-12-11T23:25:18.173Z,92.65
2022-12-11T23:27:47.365Z,92.65
2022-12-11T23:30:30.118Z,92.78
2022-12-11T23:33:12.592Z,92.70
2022-12-11T23:35:41.690Z,92.60
2022-12-11T23:38:23.958Z,92.70
2022-12-11T23:41:09.888Z,92.86
2022-12-11T23:43:52.643Z,92.93
2022-12-11T23:46:23.893Z,92.92
2022-12-11T23:49:06.584Z,92.88
2022-12-11T23:51:35.203Z,92.71
2022-12-11T23:54:17.619Z,92.64
2022-12-11T23:56:46.242Z,92.69
2022-12-11T23:59:15.825Z,92.78
